createdAt,value
2018-10-12T00:00:00.444Z,90.70
2018-10-12T00:02:28.676Z,90.50
2018-10-12T00:04:56.874Z,90.60
2018-10-12T00:07:25.075Z,90.60
2018-10-12T00:09:53.254Z,90.90
2018-10-12T00:12:22.355Z,90.80
2018-10-12T00:14:50.530Z,90.80
2018-10-12T00:17:18.709Z,90.80
2018-10-12T00:19:46.875Z,90.80
2018-10-12T00:22:15.063Z,90.70
2018-10-12T00:24:43.234Z,90.80
2018-10-12T00:27:11.419Z,90.70
2018-10-12T00:29:39.610Z,90.60
2018-10-12T00:32:07.819Z,90.60
2018-10-12T00:34:35.984Z,90.80
2018-10-12T00:37:04.167Z,90.90
2018-10-12T00:39:32.366Z,90.80
2018-10-12T00:42:00.538Z,90.80
2018-10-12T00:44:28.715Z,90.80
2018-10-12T00:46:56.963Z,90.50
2018-10-12T00:49:25.134Z,90.80
2018-10-12T00:51:53.319Z,90.70
2018-10-12T00:54:21.483Z,90.50
2018-10-12T00:56:49.702Z,90.60
2018-10-12T00:59:17.940Z,90.60
2018-10-12T01:01:46.166Z,90.10
2018-10-12T01:04:14.365Z,90.10
2018-10-12T01:06:42.623Z,90.10
2018-10-12T01:09:10.731Z,90.30
2018-10-12T01:11:38.911Z,89.60
2018-10-12T01:14:07.079Z,89.90
2018-10-12T01:16:35.255Z,90.10
2018-10-12T01:19:03.431Z,90.10
2018-10-12T01:21:31.617Z,90.00
2018-10-12T01:23:59.778Z,90.40
2018-10-12T01:26:28.018Z,90.00
2018-10-12T01:28:57.458Z,89.70
2018-10-12T01:31:26.523Z,89.50
2018-10-12T01:33:54.955Z,89.60
2018-10-12T01:36:23.107Z,89.50
2018-10-12T01:38:51.286Z,89.60
2018-10-12T01:41:19.448Z,89.90
2018-10-12T01:43:47.662Z,89.70
2018-10-12T01:46:15.850Z,89.50
2018-10-12T01:48:44.032Z,88.80
2018-10-12T01:51:12.215Z,88.80
2018-10-12T01:53:40.407Z,88.60
2018-10-12T01:56:08.603Z,88.00
2018-10-12T01:58:36.844Z,87.60
2018-10-12T02:01:05.140Z,89.00
2018-10-12T02:03:33.363Z,88.70
2018-10-12T02:06:01.567Z,88.20
2018-10-12T02:08:29.759Z,88.00
2018-10-12T02:10:57.951Z,88.60
2018-10-12T02:13:26.142Z,87.80
2018-10-12T02:15:54.323Z,87.80
2018-10-12T02:18:22.762Z,88.50
2018-10-12T02:20:50.943Z,87.70
2018-10-12T02:23:19.123Z,88.60
2018-10-12T02:25:47.299Z,88.80
2018-10-12T02:28:15.491Z,88.20
2018-10-12T02:30:44.206Z,88.20
2018-10-12T02:33:12.394Z,89.30
2018-10-12T02:35:40.567Z,88.10
2018-10-12T02:38:08.746Z,87.00
2018-10-12T02:40:36.923Z,87.40
2018-10-12T02:43:05.115Z,88.10
2018-10-12T02:45:33.292Z,88.00
2018-10-12T02:48:01.486Z,88.30
2018-10-12T02:50:29.671Z,88.30
2018-10-12T02:52:57.848Z,88.30
2018-10-12T02:55:26.057Z,88.80
2018-10-12T02:57:54.272Z,88.70
2018-10-12T03:00:22.488Z,88.50
2018-10-12T03:02:50.703Z,88.80
2018-10-12T03:05:18.883Z,88.60
2018-10-12T03:07:47.043Z,88.10
2018-10-12T03:10:15.251Z,88.90
2018-10-12T03:12:43.411Z,88.50
2018-10-12T03:15:11.671Z,88.70
2018-10-12T03:17:40.323Z,89.20
2018-10-12T03:20:08.520Z,89.10
2018-10-12T03:22:36.698Z,88.90
2018-10-12T03:25:04.875Z,88.80
2018-10-12T03:27:43.222Z,89.00
2018-10-12T03:30:11.399Z,88.90
2018-10-12T03:32:39.571Z,89.10
2018-10-12T03:35:07.763Z,89.00
2018-10-12T03:37:35.935Z,89.50
2018-10-12T03:40:04.126Z,89.00
2018-10-12T03:42:32.295Z,89.30
2018-10-12T03:45:00.470Z,90.00
2018-10-12T03:47:28.664Z,89.30
2018-10-12T03:49:56.889Z,89.50
2018-10-12T03:52:25.103Z,89.60
2018-10-12T03:54:53.313Z,89.90
2018-10-12T03:57:21.507Z,90.00
2018-10-12T03:59:49.683Z,90.00
2018-10-12T04:02:17.855Z,90.10
2018-10-12T04:04:46.301Z,90.20
2018-10-12T04:07:14.746Z,90.20
2018-10-12T04:09:42.968Z,90.30
2018-10-12T04:12:11.128Z,90.20
2018-10-12T04:14:39.313Z,90.30
2018-10-12T04:17:07.475Z,90.30
2018-10-12T04:19:35.642Z,90.30
2018-10-12T04:22:03.811Z,90.30
2018-10-12T04:24:31.986Z,90.30
2018-10-12T04:27:00.155Z,90.50
2018-10-12T04:29:28.343Z,90.50
2018-10-12T04:31:56.538Z,90.60
2018-10-12T04:34:24.727Z,90.70
2018-10-12T04:36:52.908Z,90.60
2018-10-12T04:39:38.017Z,90.60
2018-10-12T04:42:06.251Z,90.70
2018-10-12T04:44:34.465Z,90.60
2018-10-12T04:47:02.651Z,90.40
2018-10-12T04:49:30.827Z,90.60
2018-10-12T04:51:59.888Z,90.70
2018-10-12T04:54:28.364Z,90.60
2018-10-12T04:56:56.546Z,90.60
2018-10-12T04:59:24.739Z,90.50
2018-10-12T05:01:52.922Z,90.50
2018-10-12T05:04:21.087Z,90.40
2018-10-12T05:06:49.259Z,90.50
2018-10-12T05:09:17.428Z,90.60
2018-10-12T05:11:45.695Z,90.60
2018-10-12T05:14:13.854Z,90.50
2018-10-12T05:16:42.036Z,90.50
2018-10-12T05:19:10.379Z,90.50
2018-10-12T05:21:38.559Z,90.60
2018-10-12T05:24:06.820Z,90.60
2018-10-12T05:26:34.994Z,90.50
2018-10-12T05:29:03.567Z,90.60
2018-10-12T05:31:31.774Z,90.60
2018-10-12T05:34:00.275Z,90.70
2018-10-12T05:36:28.735Z,90.70
2018-10-12T05:38:56.936Z,90.70
2018-10-12T05:41:25.168Z,90.70
2018-10-12T05:43:53.518Z,90.80
2018-10-12T05:46:21.650Z,90.90
2018-10-12T05:49:01.501Z,90.80
2018-10-12T05:51:29.556Z,90.90
2018-10-12T05:53:58.009Z,91.10
2018-10-12T05:56:34.235Z,90.90
2018-10-12T05:59:02.466Z,91.10
2018-10-12T06:01:30.743Z,91.10
2018-10-12T06:03:59.115Z,91.10
2018-10-12T06:06:27.371Z,91.20
2018-10-12T06:08:55.694Z,91.20
2018-10-12T06:11:23.999Z,91.10
2018-10-12T06:13:52.255Z,91.30
2018-10-12T06:16:20.607Z,91.20
2018-10-12T06:18:48.865Z,91.30
2018-10-12T06:21:17.111Z,91.40
2018-10-12T06:23:45.607Z,91.50
2018-10-12T06:26:14.407Z,91.60
2018-10-12T06:28:42.647Z,91.90
2018-10-12T06:31:11.575Z,91.50
2018-10-12T06:33:39.794Z,91.50
2018-10-12T06:36:08.230Z,91.50
2018-10-12T06:38:36.419Z,91.70
2018-10-12T06:41:04.722Z,91.80
2018-10-12T06:43:33.023Z,91.80
2018-10-12T06:46:01.204Z,91.70
2018-10-12T06:48:29.455Z,91.50
2018-10-12T06:50:57.647Z,91.50
2018-10-12T06:53:25.844Z,91.50
2018-10-12T06:55:54.024Z,91.30
2018-10-12T06:58:22.231Z,91.20
2018-10-12T07:00:50.454Z,91.10
2018-10-12T07:03:18.805Z,90.90
2018-10-12T07:05:47.074Z,89.30
2018-10-12T07:08:15.292Z,89.00
2018-10-12T07:10:43.480Z,88.50
2018-10-12T07:13:11.658Z,88.90
2018-10-12T07:15:39.852Z,88.00
2018-10-12T07:18:08.192Z,86.60
2018-10-12T07:20:36.372Z,85.50
2018-10-12T07:23:04.936Z,86.40
2018-10-12T07:25:32.731Z,85.90
2018-10-12T07:28:00.907Z,83.60
2018-10-12T07:30:29.095Z,83.50
2018-10-12T07:32:57.256Z,83.30
2018-10-12T07:35:25.439Z,83.10
2018-10-12T07:37:53.602Z,83.80
2018-10-12T07:40:21.783Z,82.50
2018-10-12T07:42:50.003Z,80.50
2018-10-12T07:45:18.199Z,79.30
2018-10-12T07:47:46.379Z,79.60
2018-10-12T07:50:14.567Z,80.30
2018-10-12T07:52:42.751Z,78.80
2018-10-12T07:55:11.110Z,78.70
2018-10-12T07:57:39.278Z,77.60
2018-10-12T08:00:08.183Z,78.20
2018-10-12T08:02:36.296Z,77.20
2018-10-12T08:05:04.480Z,75.80
2018-10-12T08:07:32.911Z,75.80
2018-10-12T08:10:01.102Z,73.90
2018-10-12T08:12:29.283Z,74.10
2018-10-12T08:14:57.479Z,74.40
2018-10-12T08:17:25.705Z,72.90
2018-10-12T08:19:53.908Z,74.70
2018-10-12T08:22:22.141Z,73.40
2018-10-12T08:24:50.346Z,72.50
2018-10-12T08:27:18.543Z,73.40
2018-10-12T08:29:46.714Z,72.50
2018-10-12T08:32:14.911Z,73.50
2018-10-12T08:34:43.083Z,71.50
2018-10-12T08:37:11.271Z,72.30
2018-10-12T08:39:39.431Z,72.00
2018-10-12T08:42:07.669Z,71.80
2018-10-12T08:44:35.818Z,71.50
2018-10-12T08:47:04.009Z,70.70
2018-10-12T08:49:32.176Z,70.30
2018-10-12T08:52:00.350Z,70.90
2018-10-12T08:54:28.522Z,71.50
2018-10-12T08:56:56.691Z,71.50
2018-10-12T08:59:24.851Z,70.90
2018-10-12T09:01:53.039Z,71.90
2018-10-12T09:04:21.212Z,70.80
2018-10-12T09:06:49.435Z,70.20
2018-10-12T09:09:17.620Z,69.00
2018-10-12T09:11:45.804Z,70.60
2018-10-12T09:14:13.961Z,70.00
2018-10-12T09:16:42.156Z,68.50
2018-10-12T09:19:10.327Z,68.50
2018-10-12T09:21:38.543Z,69.10
2018-10-12T09:24:06.761Z,68.50
2018-10-12T09:26:34.992Z,68.80
2018-10-12T09:29:03.225Z,69.00
2018-10-12T09:31:31.440Z,69.00
2018-10-12T09:33:59.618Z,67.50
2018-10-12T09:36:28.052Z,68.30
2018-10-12T09:38:56.167Z,67.50
2018-10-12T09:41:24.327Z,66.90
2018-10-12T09:43:53.010Z,66.10
2018-10-12T09:46:21.174Z,64.50
2018-10-12T09:48:49.354Z,66.40
2018-10-12T09:51:17.588Z,63.80
2018-10-12T09:53:45.763Z,64.30
2018-10-12T09:56:13.927Z,63.80
2018-10-12T09:58:42.130Z,62.60
2018-10-12T10:01:15.591Z,62.90
2018-10-12T10:03:49.015Z,63.70
2018-10-12T10:06:17.218Z,62.40
2018-10-12T10:08:45.457Z,61.40
2018-10-12T10:11:13.592Z,62.40
2018-10-12T10:13:41.794Z,63.80
2018-10-12T10:16:09.960Z,62.30
2018-10-12T10:18:38.745Z,63.30
2018-10-12T10:21:06.974Z,62.20
2018-10-12T10:23:35.225Z,62.80
2018-10-12T10:26:03.429Z,62.50
2018-10-12T10:28:31.631Z,62.20
2018-10-12T10:30:59.815Z,65.70
2018-10-12T10:33:27.996Z,61.90
2018-10-12T10:35:56.195Z,61.80
2018-10-12T10:38:24.406Z,61.20
2018-10-12T10:40:52.581Z,63.10
2018-10-12T10:43:20.770Z,61.50
2018-10-12T10:45:49.003Z,61.50
2018-10-12T10:48:17.172Z,63.20
2018-10-12T10:50:45.355Z,61.70
2018-10-12T10:53:13.523Z,61.40
2018-10-12T10:55:41.757Z,60.40
2018-10-12T10:58:09.931Z,62.20
2018-10-12T11:00:38.110Z,60.90
2018-10-12T11:03:06.524Z,61.80
2018-10-12T11:05:34.698Z,59.70
2018-10-12T11:08:02.875Z,60.30
2018-10-12T11:10:31.050Z,57.80
2018-10-12T11:12:59.272Z,59.20
2018-10-12T11:15:27.438Z,58.50
2018-10-12T11:17:55.650Z,59.90
2018-10-12T11:20:23.960Z,57.40
2018-10-12T11:22:52.343Z,56.80
2018-10-12T11:25:20.543Z,56.80
2018-10-12T11:27:48.720Z,57.10
2018-10-12T11:30:16.907Z,56.00
2018-10-12T11:32:45.095Z,56.40
2018-10-12T11:35:13.259Z,55.20
2018-10-12T11:37:41.469Z,56.00
2018-10-12T11:40:09.688Z,54.90
2018-10-12T11:42:49.283Z,53.30
2018-10-12T11:45:17.498Z,54.30
2018-10-12T11:47:45.618Z,52.90
2018-10-12T11:50:13.795Z,56.50
2018-10-12T11:52:41.966Z,53.10
2018-10-12T11:55:10.143Z,53.30
2018-10-12T11:57:38.312Z,54.20
2018-10-12T12:00:06.483Z,54.20
2018-10-12T12:02:34.656Z,52.30
2018-10-12T12:05:02.842Z,52.80
2018-10-12T12:07:31.050Z,53.50
2018-10-12T12:09:59.233Z,52.80
2018-10-12T12:12:27.423Z,53.00
2018-10-12T12:14:55.607Z,50.80
2018-10-12T12:17:23.827Z,50.50
2018-10-12T12:19:52.006Z,52.20
2018-10-12T12:22:20.269Z,52.00
2018-10-12T12:24:48.451Z,51.40
2018-10-12T12:27:16.647Z,50.60
2018-10-12T12:29:44.833Z,49.10
2018-10-12T12:32:13.047Z,50.30
2018-10-12T12:34:41.286Z,48.80
2018-10-12T12:37:09.477Z,47.10
2018-10-12T12:39:37.900Z,49.40
2018-10-12T12:42:06.142Z,48.20
2018-10-12T12:44:34.373Z,47.00
2018-10-12T12:47:02.659Z,49.10
2018-10-12T12:49:31.027Z,47.20
2018-10-12T12:51:59.003Z,45.20
2018-10-12T12:54:27.439Z,45.80
2018-10-12T12:56:55.657Z,46.80
2018-10-12T12:59:23.843Z,45.40
2018-10-12T13:01:52.491Z,44.10
2018-10-12T13:04:20.713Z,44.80
2018-10-12T13:06:48.927Z,45.60
2018-10-12T13:09:17.132Z,46.20
2018-10-12T13:11:45.346Z,45.40
2018-10-12T13:14:13.664Z,43.40
2018-10-12T13:16:41.927Z,45.10
2018-10-12T13:19:10.128Z,45.00
2018-10-12T13:21:38.330Z,44.10
2018-10-12T13:24:06.578Z,44.40
2018-10-12T13:26:34.767Z,41.20
2018-10-12T13:29:03.083Z,42.40
2018-10-12T13:31:31.291Z,42.90
2018-10-12T13:33:59.530Z,43.80
2018-10-12T13:36:27.747Z,43.40
2018-10-12T13:38:56.004Z,42.00
2018-10-12T13:41:24.227Z,40.80
2018-10-12T13:43:52.461Z,41.70
2018-10-12T13:46:20.659Z,43.90
2018-10-12T13:48:48.869Z,43.90
2018-10-12T13:51:17.064Z,44.20
2018-10-12T13:53:45.255Z,44.30
2018-10-12T13:56:13.447Z,43.60
2018-10-12T13:58:41.770Z,43.10
2018-10-12T14:01:09.983Z,43.00
2018-10-12T14:03:38.191Z,44.40
2018-10-12T14:06:06.379Z,44.80
2018-10-12T14:08:34.595Z,44.70
2018-10-12T14:11:02.811Z,44.50
2018-10-12T14:13:30.997Z,43.70
2018-10-12T14:15:59.179Z,44.50
2018-10-12T14:18:27.436Z,44.20
2018-10-12T14:20:55.541Z,44.40
2018-10-12T14:23:23.724Z,45.30
2018-10-12T14:25:51.903Z,45.60
2018-10-12T14:28:20.112Z,46.20
2018-10-12T14:30:48.327Z,46.70
2018-10-12T14:33:16.596Z,45.90
2018-10-12T14:35:44.844Z,44.90
2018-10-12T14:38:13.024Z,45.90
2018-10-12T14:40:41.241Z,46.50
2018-10-12T14:43:09.415Z,44.50
2018-10-12T14:45:37.619Z,45.50
2018-10-12T14:48:05.855Z,45.30
2018-10-12T14:50:34.032Z,45.10
2018-10-12T14:53:02.281Z,46.40
2018-10-12T14:55:30.407Z,44.70
2018-10-12T14:57:58.579Z,44.40
2018-10-12T15:00:26.758Z,44.10
2018-10-12T15:02:54.927Z,45.70
2018-10-12T15:05:23.162Z,45.10
2018-10-12T15:07:51.325Z,46.30
2018-10-12T15:10:19.535Z,46.60
2018-10-12T15:12:47.735Z,47.70
2018-10-12T15:15:20.851Z,47.40
2018-10-12T15:17:50.154Z,47.80
2018-10-12T15:20:18.430Z,49.70
2018-10-12T15:22:46.611Z,49.90
2018-10-12T15:25:14.812Z,50.60
2018-10-12T15:27:43.347Z,49.60
2018-10-12T15:30:12.247Z,50.00
2018-10-12T15:32:40.691Z,51.60
2018-10-12T15:35:09.131Z,51.90
2018-10-12T15:37:37.526Z,51.40
2018-10-12T15:40:05.785Z,53.50
2018-10-12T15:42:35.516Z,53.50
2018-10-12T15:45:03.760Z,53.90
2018-10-12T15:47:31.967Z,55.40
2018-10-12T15:50:00.146Z,55.90
2018-10-12T15:52:28.323Z,58.10
2018-10-12T15:54:56.507Z,58.80
2018-10-12T15:57:25.666Z,59.90
2018-10-12T15:59:53.884Z,60.60
2018-10-12T16:02:22.088Z,60.90
2018-10-12T16:04:50.291Z,61.30
2018-10-12T16:07:19.031Z,61.40
2018-10-12T16:09:49.083Z,62.10
2018-10-12T16:12:17.702Z,62.60
2018-10-12T16:14:45.928Z,63.10
2018-10-12T16:17:14.050Z,63.60
2018-10-12T16:19:42.223Z,63.60
2018-10-12T16:22:10.834Z,65.40
2018-10-12T16:25:52.711Z,65.60
2018-10-12T16:28:21.115Z,65.00
2018-10-12T16:30:49.483Z,66.10
2018-10-12T16:33:17.730Z,66.90
2018-10-12T16:35:45.954Z,67.30
2018-10-12T16:38:14.832Z,67.30
2018-10-12T16:40:43.499Z,67.70
2018-10-12T16:43:12.807Z,68.20
2018-10-12T16:45:40.975Z,69.60
2018-10-12T16:48:09.363Z,69.60
2018-10-12T16:50:37.560Z,70.40
2018-10-12T16:53:05.987Z,70.10
2018-10-12T16:55:34.164Z,70.40
2018-10-12T16:58:02.388Z,70.60
2018-10-12T17:00:30.507Z,70.50
2018-10-12T17:02:58.690Z,71.40
2018-10-12T17:05:27.587Z,72.10
2018-10-12T17:07:56.077Z,72.50
2018-10-12T17:10:24.258Z,72.10
2018-10-12T17:12:52.523Z,72.20
2018-10-12T17:15:20.746Z,72.50
2018-10-12T17:17:48.896Z,72.50
2018-10-12T17:20:17.079Z,72.80
2018-10-12T17:22:45.274Z,73.00
2018-10-12T17:25:13.459Z,72.90
2018-10-12T17:27:41.660Z,73.20
2018-10-12T17:30:09.875Z,73.30
2018-10-12T17:32:38.112Z,74.40
2018-10-12T17:35:06.542Z,74.60
2018-10-12T17:37:34.784Z,74.40
2018-10-12T17:40:03.054Z,74.50
2018-10-12T17:42:31.244Z,74.60
2018-10-12T17:44:59.511Z,74.40
2018-10-12T17:47:27.731Z,74.40
2018-10-12T17:49:55.935Z,75.00
2018-10-12T17:52:24.133Z,75.30
2018-10-12T17:54:52.327Z,75.60
2018-10-12T17:57:23.312Z,75.70
2018-10-12T17:59:51.927Z,75.80
2018-10-12T18:02:20.084Z,76.10
2018-10-12T18:04:48.272Z,76.40
2018-10-12T18:07:16.471Z,76.20
2018-10-12T18:09:44.659Z,76.30
2018-10-12T18:12:12.835Z,76.60
2018-10-12T18:14:41.011Z,77.00
2018-10-12T18:17:09.183Z,77.10
2018-10-12T18:19:37.391Z,77.10
2018-10-12T18:22:05.536Z,77.40
2018-10-12T18:24:33.775Z,77.70
2018-10-12T18:27:01.943Z,78.20
2018-10-12T18:29:30.139Z,77.50
2018-10-12T18:31:58.366Z,77.50
2018-10-12T18:34:26.601Z,78.00
2018-10-12T18:36:55.003Z,78.30
2018-10-12T18:39:23.105Z,78.50
2018-10-12T18:41:51.315Z,79.40
2018-10-12T18:44:19.463Z,80.30
2018-10-12T18:46:47.698Z,81.00
2018-10-12T18:49:15.925Z,81.30
2018-10-12T18:51:44.133Z,81.80
2018-10-12T18:54:12.359Z,82.00
2018-10-12T18:56:40.531Z,82.10
2018-10-12T18:59:09.370Z,82.90
2018-10-12T19:01:37.583Z,82.70
2018-10-12T19:04:05.782Z,82.70
2018-10-12T19:06:34.043Z,83.00
2018-10-12T19:09:02.223Z,83.40
2018-10-12T19:11:30.496Z,83.60
2018-10-12T19:13:58.744Z,84.00
2018-10-12T19:16:27.300Z,83.70
2018-10-12T19:18:55.488Z,83.80
2018-10-12T19:21:23.695Z,83.80
2018-10-12T19:23:51.941Z,84.20
2018-10-12T19:26:20.096Z,83.90
2018-10-12T19:28:48.317Z,83.80
2018-10-12T19:31:16.611Z,84.00
2018-10-12T19:33:44.733Z,84.10
2018-10-12T19:36:12.952Z,84.30
2018-10-12T19:38:41.355Z,84.50
2018-10-12T19:41:09.559Z,84.70
2018-10-12T19:43:37.775Z,85.00
2018-10-12T19:46:05.997Z,85.30
2018-10-12T19:48:34.204Z,85.50
2018-10-12T19:51:02.394Z,85.80
2018-10-12T19:53:30.591Z,85.90
2018-10-12T19:55:58.795Z,86.20
2018-10-12T19:58:27.003Z,86.70
2018-10-12T20:00:55.239Z,86.50
2018-10-12T20:03:23.463Z,86.60
2018-10-12T20:05:51.681Z,87.00
2018-10-12T20:08:19.919Z,86.90
2018-10-12T20:10:48.157Z,87.00
2018-10-12T20:13:16.404Z,87.10
2018-10-12T20:15:44.647Z,87.10
2018-10-12T20:18:12.906Z,87.30
2018-10-12T20:20:41.156Z,87.30
2018-10-12T20:23:09.367Z,87.20
2018-10-12T20:25:37.600Z,87.30
2018-10-12T20:28:05.797Z,87.30
2018-10-12T20:30:34.012Z,87.40
2018-10-12T20:33:02.231Z,87.50
2018-10-12T20:35:30.446Z,87.80
2018-10-12T20:37:58.655Z,87.90
2018-10-12T20:40:26.876Z,88.40
2018-10-12T20:42:55.067Z,88.10
2018-10-12T20:45:23.251Z,87.80
2018-10-12T20:47:51.549Z,87.80
2018-10-12T20:50:19.740Z,88.20
2018-10-12T20:52:47.927Z,87.50
2018-10-12T20:55:16.115Z,87.20
2018-10-12T20:57:45.767Z,86.60
2018-10-12T21:00:14.946Z,86.70
2018-10-12T21:02:43.309Z,86.70
2018-10-12T21:05:11.811Z,86.40
2018-10-12T21:07:40.187Z,85.90
2018-10-12T21:10:09.185Z,85.80
2018-10-12T21:12:37.654Z,86.10
2018-10-12T21:15:06.145Z,85.50
2018-10-12T21:17:34.808Z,85.40
2018-10-12T21:20:03.434Z,85.30
2018-10-12T21:22:33.807Z,85.70
2018-10-12T21:25:04.684Z,85.50
2018-10-12T21:27:32.941Z,85.30
2018-10-12T21:30:02.343Z,85.30
2018-10-12T21:32:31.040Z,85.70
2018-10-12T21:35:00.827Z,85.40
2018-10-12T21:37:29.380Z,86.40
2018-10-12T21:39:58.207Z,86.50
2018-10-12T21:42:26.491Z,87.10
2018-10-12T21:44:56.280Z,87.10
2018-10-12T21:47:24.933Z,87.30
2018-10-12T21:49:53.228Z,87.30
2018-10-12T21:52:21.619Z,87.60
2018-10-12T21:54:49.937Z,87.50
2018-10-12T21:57:18.151Z,87.70
2018-10-12T21:59:46.516Z,87.90
2018-10-12T22:02:14.961Z,88.10
2018-10-12T22:04:44.422Z,88.10
2018-10-12T22:07:15.138Z,88.10
2018-10-12T22:09:44.231Z,88.10
2018-10-12T22:12:12.915Z,88.10
2018-10-12T22:14:41.079Z,88.20
2018-10-12T22:17:10.655Z,88.30
2018-10-12T22:19:38.830Z,88.40
2018-10-12T22:22:07.071Z,88.30
2018-10-12T22:24:35.245Z,88.20
2018-10-12T22:27:03.440Z,88.40
2018-10-12T22:29:32.053Z,88.70
2018-10-12T22:32:00.279Z,88.60
2018-10-12T22:34:28.495Z,88.60
2018-10-12T22:36:56.879Z,88.70
2018-10-12T22:39:26.205Z,88.90
2018-10-12T22:41:54.924Z,88.60
2018-10-12T22:44:23.575Z,88.80
2018-10-12T22:46:52.088Z,88.90
2018-10-12T22:49:20.267Z,88.60
2018-10-12T22:51:48.451Z,88.80
2018-10-12T22:54:16.630Z,88.70
2018-10-12T22:56:44.803Z,88.90
2018-10-12T22:59:13.090Z,88.90
2018-10-12T23:01:41.271Z,88.90
2018-10-12T23:04:09.443Z,89.00
2018-10-12T23:06:37.622Z,89.40
2018-10-12T23:09:08.675Z,88.90
2018-10-12T23:11:36.900Z,88.90
2018-10-12T23:14:05.572Z,89.10
2018-10-12T23:16:33.805Z,89.10
2018-10-12T23:19:02.030Z,89.30
2018-10-12T23:21:30.316Z,89.40
2018-10-12T23:23:58.655Z,89.30
2018-10-12T23:26:26.830Z,89.40
2018-10-12T23:28:55.011Z,89.20
2018-10-12T23:31:23.188Z,89.20
2018-10-12T23:34:00.779Z,89.40
2018-10-12T23:36:29.039Z,89.50
2018-10-12T23:38:57.335Z,89.70
2018-10-12T23:41:26.012Z,89.40
2018-10-12T23:43:54.492Z,89.40
2018-10-12T23:46:22.663Z,89.40
2018-10-12T23:48:50.850Z,89.20
2018-10-12T23:51:19.302Z,89.60
2018-10-12T23:53:47.499Z,89.60
2018-10-12T23:56:15.667Z,89.50
2018-10-12T23:58:43.942Z,89.50
